sensor_id;sensor_type;location;lat;lon;timestamp;pressure;altitude;pressure_sealevel;temperature;humidity
17230;BME280;8731;50.364;8.958;2023-11-19T00:03:21;99924.44;;;8.16;100.00
17230;BME280;8731;50.364;8.958;2023-11-19T00:07:44;99918.81;;;8.36;100.00
17230;BME280;8731;50.364;8.958;2023-11-19T00:12:07;99902.63;;;8.26;100.00
17230;BME280;8731;50.364;8.958;2023-11-19T00:16:30;99892.41;;;8.34;100.00
17230;BME280;8731;50.364;8.958;2023-11-19T00:20:53;99884.19;;;8.36;100.00
17230;BME280;8731;50.364;8.958;2023-11-19T00:25:15;99886.72;;;8.36;100.00
17230;BME280;8731;50.364;8.958;2023-11-19T00:29:38;99899.97;;;8.42;100.00
17230;BME280;8731;50.364;8.958;2023-11-19T00:34:02;99878.81;;;8.42;100.00
17230;BME280;8731;50.364;8.958;2023-11-19T00:38:26;99884.16;;;8.45;100.00
17230;BME280;8731;50.364;8.958;2023-11-19T00:42:48;99871.16;;;8.50;100.00
17230;BME280;8731;50.364;8.958;2023-11-19T00:47:11;99864.63;;;8.52;100.00
17230;BME280;8731;50.364;8.958;2023-11-19T00:51:34;99866.53;;;8.46;100.00
17230;BME280;8731;50.364;8.958;2023-11-19T00:55:57;99857.72;;;8.60;100.00
17230;BME280;8731;50.364;8.958;2023-11-19T01:00:19;99856.53;;;8.56;100.00
17230;BME280;8731;50.364;8.958;2023-11-19T01:04:44;99843.41;;;8.60;100.00
17230;BME280;8731;50.364;8.958;2023-11-19T01:09:08;99842.66;;;8.61;100.00
17230;BME280;8731;50.364;8.958;2023-11-19T01:13:31;99832.78;;;8.65;100.00
17230;BME280;8731;50.364;8.958;2023-11-19T01:17:53;99833.97;;;8.68;100.00
17230;BME280;8731;50.364;8.958;2023-11-19T01:22:15;99832.03;;;8.66;100.00
17230;BME280;8731;50.364;8.958;2023-11-19T01:26:40;99824.56;;;8.67;100.00
17230;BME280;8731;50.364;8.958;2023-11-19T01:31:05;99813.31;;;8.74;100.00
17230;BME280;8731;50.364;8.958;2023-11-19T01:35:28;99827.50;;;8.80;100.00
17230;BME280;8731;50.364;8.958;2023-11-19T01:39:51;99824.34;;;8.83;100.00
17230;BME280;8731;50.364;8.958;2023-11-19T01:44:14;99809.69;;;8.89;100.00
17230;BME280;8731;50.364;8.958;2023-11-19T01:48:39;99814.75;;;8.89;100.00
17230;BME280;8731;50.364;8.958;2023-11-19T01:53:05;99810.25;;;8.95;100.00
17230;BME280;8731;50.364;8.958;2023-11-19T01:57:28;99803.38;;;8.94;100.00
17230;BME280;8731;50.364;8.958;2023-11-19T02:01:52;99787.41;;;8.95;100.00
17230;BME280;8731;50.364;8.958;2023-11-19T02:06:15;99777.09;;;8.93;100.00
17230;BME280;8731;50.364;8.958;2023-11-19T02:10:38;99769.91;;;8.98;100.00
17230;BME280;8731;50.364;8.958;2023-11-19T02:15:00;99771.88;;;9.01;100.00
17230;BME280;8731;50.364;8.958;2023-11-19T02:19:25;99778.53;;;9.09;100.00
17230;BME280;8731;50.364;8.958;2023-11-19T02:23:48;99760.00;;;9.10;100.00
17230;BME280;8731;50.364;8.958;2023-11-19T02:28:12;99762.41;;;9.08;100.00
17230;BME280;8731;50.364;8.958;2023-11-19T02:32:34;99779.69;;;9.12;100.00
17230;BME280;8731;50.364;8.958;2023-11-19T02:37:00;99759.38;;;9.12;100.00
17230;BME280;8731;50.364;8.958;2023-11-19T02:41:23;99744.81;;;9.20;100.00
17230;BME280;8731;50.364;8.958;2023-11-19T02:45:46;99726.16;;;9.19;100.00
17230;BME280;8731;50.364;8.958;2023-11-19T02:50:09;99714.47;;;9.21;100.00
17230;BME280;8731;50.364;8.958;2023-11-19T02:54:34;99716.56;;;9.26;100.00
17230;BME280;8731;50.364;8.958;2023-11-19T02:58:56;99724.47;;;9.29;100.00
17230;BME280;8731;50.364;8.958;2023-11-19T03:03:20;99713.53;;;9.30;100.00
17230;BME280;8731;50.364;8.958;2023-11-19T03:07:46;99707.84;;;9.32;100.00
17230;BME280;8731;50.364;8.958;2023-11-19T03:12:08;99706.06;;;9.31;100.00
17230;BME280;8731;50.364;8.958;2023-11-19T03:16:31;99697.69;;;9.32;100.00
17230;BME280;8731;50.364;8.958;2023-11-19T03:20:55;99698.09;;;9.37;100.00
17230;BME280;8731;50.364;8.958;2023-11-19T03:25:18;99703.44;;;9.40;100.00
17230;BME280;8731;50.364;8.958;2023-11-19T03:29:41;99685.91;;;9.43;100.00
17230;BME280;8731;50.364;8.958;2023-11-19T03:34:04;99682.94;;;9.47;100.00
17230;BME280;8731;50.364;8.958;2023-11-19T03:38:27;99695.47;;;9.45;100.00
17230;BME280;8731;50.364;8.958;2023-11-19T03:42:50;99701.13;;;9.51;100.00
17230;BME280;8731;50.364;8.958;2023-11-19T03:47:12;99692.34;;;9.48;100.00
17230;BME280;8731;50.364;8.958;2023-11-19T03:51:35;99688.53;;;9.53;100.00
17230;BME280;8731;50.364;8.958;2023-11-19T03:55:58;99689.06;;;9.59;100.00
17230;BME280;8731;50.364;8.958;2023-11-19T04:00:21;99688.56;;;9.63;100.00
17230;BME280;8731;50.364;8.958;2023-11-19T04:04:43;99700.66;;;9.66;100.00
17230;BME280;8731;50.364;8.958;2023-11-19T04:09:06;99685.28;;;9.64;100.00
17230;BME280;8731;50.364;8.958;2023-11-19T04:13:29;99666.22;;;9.69;100.00
17230;BME280;8731;50.364;8.958;2023-11-19T04:17:52;99662.66;;;9.67;100.00
17230;BME280;8731;50.364;8.958;2023-11-19T04:22:15;99678.22;;;9.70;100.00
17230;BME280;8731;50.364;8.958;2023-11-19T04:26:40;99677.59;;;9.73;100.00
17230;BME280;8731;50.364;8.958;2023-11-19T04:31:06;99657.38;;;9.74;100.00
17230;BME280;8731;50.364;8.958;2023-11-19T04:35:29;99639.59;;;9.74;100.00
17230;BME280;8731;50.364;8.958;2023-11-19T04:39:52;99642.66;;;9.80;100.00
17230;BME280;8731;50.364;8.958;2023-11-19T04:44:14;99650.28;;;9.80;100.00
17230;BME280;8731;50.364;8.958;2023-11-19T04:48:39;99636.69;;;9.80;100.00
17230;BME280;8731;50.364;8.958;2023-11-19T04:53:01;99663.03;;;9.91;100.00
17230;BME280;8731;50.364;8.958;2023-11-19T04:57:23;99658.56;;;9.88;100.00
17230;BME280;8731;50.364;8.958;2023-11-19T05:01:46;99657.03;;;9.90;100.00
17230;BME280;8731;50.364;8.958;2023-11-19T05:06:10;99646.53;;;9.96;100.00
17230;BME280;8731;50.364;8.958;2023-11-19T05:10:32;99651.63;;;9.96;100.00
17230;BME280;8731;50.364;8.958;2023-11-19T05:14:55;99649.84;;;9.95;100.00
17230;BME280;8731;50.364;8.958;2023-11-19T05:19:17;99645.91;;;9.98;100.00
17230;BME280;8731;50.364;8.958;2023-11-19T05:23:41;99651.25;;;10.11;100.00
17230;BME280;8731;50.364;8.958;2023-11-19T05:28:03;99660.34;;;10.18;100.00
17230;BME280;8731;50.364;8.958;2023-11-19T05:32:26;99651.38;;;10.13;100.00
17230;BME280;8731;50.364;8.958;2023-11-19T05:36:48;99639.94;;;10.08;100.00
17230;BME280;8731;50.364;8.958;2023-11-19T05:41:12;99644.78;;;10.15;100.00
17230;BME280;8731;50.364;8.958;2023-11-19T05:45:35;99648.59;;;10.10;100.00
17230;BME280;8731;50.364;8.958;2023-11-19T05:49:57;99641.47;;;10.16;100.00
17230;BME280;8731;50.364;8.958;2023-11-19T05:54:19;99628.63;;;10.14;100.00
17230;BME280;8731;50.364;8.958;2023-11-19T05:58:43;99637.44;;;10.18;100.00
17230;BME280;8731;50.364;8.958;2023-11-19T06:03:07;99642.94;;;10.33;100.00
17230;BME280;8731;50.364;8.958;2023-11-19T06:07:29;99642.31;;;10.35;100.00
17230;BME280;8731;50.364;8.958;2023-11-19T06:11:52;99649.06;;;10.35;100.00
17230;BME280;8731;50.364;8.958;2023-11-19T06:16:17;99652.28;;;10.42;100.00
17230;BME280;8731;50.364;8.958;2023-11-19T06:20:40;99646.91;;;10.39;100.00
17230;BME280;8731;50.364;8.958;2023-11-19T06:25:03;99660.16;;;10.45;100.00
17230;BME280;8731;50.364;8.958;2023-11-19T06:29:27;99665.63;;;10.50;100.00
17230;BME280;8731;50.364;8.958;2023-11-19T06:33:51;99666.22;;;10.37;100.00
17230;BME280;8731;50.364;8.958;2023-11-19T06:38:13;99662.94;;;10.38;100.00
17230;BME280;8731;50.364;8.958;2023-11-19T06:42:35;99660.66;;;10.41;100.00
17230;BME280;8731;50.364;8.958;2023-11-19T06:46:58;99667.41;;;10.51;100.00
17230;BME280;8731;50.364;8.958;2023-11-19T06:51:22;99667.78;;;10.45;100.00
17230;BME280;8731;50.364;8.958;2023-11-19T06:55:45;99677.47;;;10.50;100.00
17230;BME280;8731;50.364;8.958;2023-11-19T07:00:09;99672.63;;;10.53;100.00
17230;BME280;8731;50.364;8.958;2023-11-19T07:04:33;99675.19;;;10.53;100.00
17230;BME280;8731;50.364;8.958;2023-11-19T07:08:56;99673.00;;;10.57;100.00
17230;BME280;8731;50.364;8.958;2023-11-19T07:13:18;99672.63;;;10.63;100.00
17230;BME280;8731;50.364;8.958;2023-11-19T07:17:42;99674.19;;;10.71;100.00
17230;BME280;8731;50.364;8.958;2023-11-19T07:22:05;99662.84;;;10.67;100.00
17230;BME280;8731;50.364;8.958;2023-11-19T07:26:29;99682.97;;;10.74;100.00
17230;BME280;8731;50.364;8.958;2023-11-19T07:30:52;99689.19;;;10.78;100.00
17230;BME280;8731;50.364;8.958;2023-11-19T07:35:17;99686.41;;;10.85;100.00
17230;BME280;8731;50.364;8.958;2023-11-19T07:39:39;99670.25;;;10.95;100.00
17230;BME280;8731;50.364;8.958;2023-11-19T07:44:04;99670.72;;;11.01;100.00
17230;BME280;8731;50.364;8.958;2023-11-19T07:48:26;99673.66;;;11.16;100.00
17230;BME280;8731;50.364;8.958;2023-11-19T07:52:49;99674.78;;;11.29;100.00
17230;BME280;8731;50.364;8.958;2023-11-19T07:57:11;99670.16;;;11.46;100.00
17230;BME280;8731;50.364;8.958;2023-11-19T08:01:35;99675.81;;;11.84;100.00
17230;BME280;8731;50.364;8.958;2023-11-19T08:05:57;99668.16;;;12.06;100.00
17230;BME280;8731;50.364;8.958;2023-11-19T08:10:20;99679.28;;;12.50;100.00
17230;BME280;8731;50.364;8.958;2023-11-19T08:14:43;99678.09;;;12.90;100.00
17230;BME280;8731;50.364;8.958;2023-11-19T08:19:06;99674.31;;;13.30;100.00
17230;BME280;8731;50.364;8.958;2023-11-19T08:23:29;99663.31;;;13.31;100.00
17230;BME280;8731;50.364;8.958;2023-11-19T08:27:51;99662.31;;;13.29;100.00
17230;BME280;8731;50.364;8.958;2023-11-19T08:32:14;99654.75;;;13.42;100.00
17230;BME280;8731;50.364;8.958;2023-11-19T08:36:37;99650.28;;;13.40;100.00
17230;BME280;8731;50.364;8.958;2023-11-19T08:40:59;99661.97;;;13.60;100.00
17230;BME280;8731;50.364;8.958;2023-11-19T08:45:22;99662.09;;;13.61;100.00
17230;BME280;8731;50.364;8.958;2023-11-19T08:49:44;99670.41;;;13.70;100.00
17230;BME280;8731;50.364;8.958;2023-11-19T08:54:09;99653.84;;;13.77;100.00
17230;BME280;8731;50.364;8.958;2023-11-19T08:58:33;99649.38;;;13.86;100.00
17230;BME280;8731;50.364;8.958;2023-11-19T09:02:55;99643.47;;;14.47;98.96
17230;BME280;8731;50.364;8.958;2023-11-19T09:07:18;99624.84;;;14.88;97.30
17230;BME280;8731;50.364;8.958;2023-11-19T09:11:43;99637.50;;;15.11;94.78
17230;BME280;8731;50.364;8.958;2023-11-19T09:16:05;99632.59;;;15.54;91.89
17230;BME280;8731;50.364;8.958;2023-11-19T09:20:29;99636.16;;;15.82;88.48
17230;BME280;8731;50.364;8.958;2023-11-19T09:24:57;99631.72;;;16.34;88.77
17230;BME280;8731;50.364;8.958;2023-11-19T09:29:22;99637.00;;;16.65;82.98
17230;BME280;8731;50.364;8.958;2023-11-19T09:33:45;99634.31;;;17.21;82.38
17230;BME280;8731;50.364;8.958;2023-11-19T09:38:07;99639.28;;;17.33;81.89
17230;BME280;8731;50.364;8.958;2023-11-19T09:42:32;99652.50;;;17.68;80.75
17230;BME280;8731;50.364;8.958;2023-11-19T09:47:05;99650.16;;;17.73;76.89
17230;BME280;8731;50.364;8.958;2023-11-19T09:51:29;99646.81;;;18.21;77.48
17230;BME280;8731;50.364;8.958;2023-11-19T09:55:53;99650.59;;;18.44;73.10
17230;BME280;8731;50.364;8.958;2023-11-19T10:00:17;99660.66;;;18.70;69.64
17230;BME280;8731;50.364;8.958;2023-11-19T10:04:45;99658.94;;;19.39;71.31
17230;BME280;8731;50.364;8.958;2023-11-19T10:09:09;99663.78;;;19.15;70.55
17230;BME280;8731;50.364;8.958;2023-11-19T10:13:35;99657.50;;;19.44;69.11
17230;BME280;8731;50.364;8.958;2023-11-19T10:17:59;99670.63;;;19.15;69.68
17230;BME280;8731;50.364;8.958;2023-11-19T10:22:23;99666.69;;;19.55;70.23
17230;BME280;8731;50.364;8.958;2023-11-19T10:26:46;99666.47;;;19.35;69.08
17230;BME280;8731;50.364;8.958;2023-11-19T10:31:09;99665.94;;;19.58;67.99
17230;BME280;8731;50.364;8.958;2023-11-19T10:35:31;99656.38;;;19.21;66.25
17230;BME280;8731;50.364;8.958;2023-11-19T10:39:55;99654.13;;;19.63;66.13
17230;BME280;8731;50.364;8.958;2023-11-19T10:44:31;99649.09;;;20.02;68.59
17230;BME280;8731;50.364;8.958;2023-11-19T10:48:56;99659.81;;;19.74;67.67
17230;BME280;8731;50.364;8.958;2023-11-19T10:53:18;99653.78;;;19.91;67.93
17230;BME280;8731;50.364;8.958;2023-11-19T10:57:45;99652.81;;;19.37;67.29
17230;BME280;8731;50.364;8.958;2023-11-19T11:02:14;99656.19;;;18.68;63.19
17230;BME280;8731;50.364;8.958;2023-11-19T11:06:43;99658.13;;;18.88;63.65
17230;BME280;8731;50.364;8.958;2023-11-19T11:11:07;99660.25;;;17.99;62.61
17230;BME280;8731;50.364;8.958;2023-11-19T11:15:32;99649.50;;;18.55;64.03
17230;BME280;8731;50.364;8.958;2023-11-19T11:19:55;99651.44;;;18.27;63.60
17230;BME280;8731;50.364;8.958;2023-11-19T11:24:40;99646.56;;;18.00;62.28
17230;BME280;8731;50.364;8.958;2023-11-19T11:29:26;99657.38;;;17.95;63.14
17230;BME280;8731;50.364;8.958;2023-11-19T11:34:11;99652.75;;;18.04;64.06
17230;BME280;8731;50.364;8.958;2023-11-19T11:38:48;99661.00;;;17.82;61.98
17230;BME280;8731;50.364;8.958;2023-11-19T11:43:44;99640.28;;;18.12;61.33
17230;BME280;8731;50.364;8.958;2023-11-19T11:48:14;99644.94;;;17.71;58.51
17230;BME280;8731;50.364;8.958;2023-11-19T11:53:18;99637.22;;;18.02;60.09
17230;BME280;8731;50.364;8.958;2023-11-19T11:57:43;99619.94;;;18.65;59.12
17230;BME280;8731;50.364;8.958;2023-11-19T12:02:08;99612.09;;;18.80;59.31
17230;BME280;8731;50.364;8.958;2023-11-19T12:06:32;99618.72;;;18.26;60.03
17230;BME280;8731;50.364;8.958;2023-11-19T12:10:57;99618.97;;;18.47;61.29
17230;BME280;8731;50.364;8.958;2023-11-19T12:15:24;99624.91;;;18.29;60.55
17230;BME280;8731;50.364;8.958;2023-11-19T12:19:48;99624.34;;;18.02;60.85
17230;BME280;8731;50.364;8.958;2023-11-19T12:24:11;99614.59;;;18.13;62.05
17230;BME280;8731;50.364;8.958;2023-11-19T12:28:35;99607.72;;;17.81;61.70
17230;BME280;8731;50.364;8.958;2023-11-19T12:32:59;99575.13;;;17.67;61.53
17230;BME280;8731;50.364;8.958;2023-11-19T12:37:21;99587.19;;;17.52;60.78
17230;BME280;8731;50.364;8.958;2023-11-19T12:41:51;99574.09;;;17.03;60.68
17230;BME280;8731;50.364;8.958;2023-11-19T12:46:19;99575.78;;;16.87;60.33
17230;BME280;8731;50.364;8.958;2023-11-19T12:50:51;99576.03;;;16.63;60.60
17230;BME280;8731;50.364;8.958;2023-11-19T12:55:25;99565.59;;;16.89;61.34
17230;BME280;8731;50.364;8.958;2023-11-19T12:59:54;99570.88;;;16.63;60.99
17230;BME280;8731;50.364;8.958;2023-11-19T13:04:18;99568.72;;;16.55;60.93
17230;BME280;8731;50.364;8.958;2023-11-19T13:08:42;99552.31;;;16.53;61.74
17230;BME280;8731;50.364;8.958;2023-11-19T13:13:06;99557.91;;;16.46;61.80
17230;BME280;8731;50.364;8.958;2023-11-19T13:17:29;99547.31;;;16.27;61.52
17230;BME280;8731;50.364;8.958;2023-11-19T13:21:53;99542.28;;;16.28;62.21
17230;BME280;8731;50.364;8.958;2023-11-19T13:26:15;99529.41;;;16.14;61.77
17230;BME280;8731;50.364;8.958;2023-11-19T13:30:38;99528.28;;;16.23;62.21
17230;BME280;8731;50.364;8.958;2023-11-19T13:35:01;99532.56;;;15.95;62.06
17230;BME280;8731;50.364;8.958;2023-11-19T13:39:25;99537.50;;;15.92;62.98
17230;BME280;8731;50.364;8.958;2023-11-19T13:43:47;99529.00;;;15.65;62.13
17230;BME280;8731;50.364;8.958;2023-11-19T13:48:09;99527.84;;;15.88;63.36
17230;BME280;8731;50.364;8.958;2023-11-19T13:52:32;99524.25;;;15.71;63.23
17230;BME280;8731;50.364;8.958;2023-11-19T13:56:56;99533.44;;;15.68;64.13
17230;BME280;8731;50.364;8.958;2023-11-19T14:01:19;99524.25;;;15.71;64.25
17230;BME280;8731;50.364;8.958;2023-11-19T14:05:41;99518.81;;;15.67;65.07
17230;BME280;8731;50.364;8.958;2023-11-19T14:10:05;99519.88;;;15.57;64.72
17230;BME280;8731;50.364;8.958;2023-11-19T14:14:30;99512.78;;;15.53;65.76
17230;BME280;8731;50.364;8.958;2023-11-19T14:18:53;99510.84;;;15.49;66.67
17230;BME280;8731;50.364;8.958;2023-11-19T14:23:16;99525.25;;;15.47;65.85
17230;BME280;8731;50.364;8.958;2023-11-19T14:27:39;99534.53;;;15.45;65.84
17230;BME280;8731;50.364;8.958;2023-11-19T14:32:04;99516.94;;;15.38;65.63
17230;BME280;8731;50.364;8.958;2023-11-19T14:36:27;99516.91;;;15.23;65.63
17230;BME280;8731;50.364;8.958;2023-11-19T14:40:49;99516.47;;;15.30;65.82
17230;BME280;8731;50.364;8.958;2023-11-19T14:45:11;99517.97;;;15.26;66.10
17230;BME280;8731;50.364;8.958;2023-11-19T14:49:35;99515.63;;;15.16;65.61
17230;BME280;8731;50.364;8.958;2023-11-19T14:53:58;99518.19;;;15.16;65.55
17230;BME280;8731;50.364;8.958;2023-11-19T14:58:20;99514.81;;;15.04;64.72
17230;BME280;8731;50.364;8.958;2023-11-19T15:02:42;99515.41;;;15.13;65.47
17230;BME280;8731;50.364;8.958;2023-11-19T15:07:06;99511.94;;;15.13;66.09
17230;BME280;8731;50.364;8.958;2023-11-19T15:11:28;99514.03;;;15.18;66.65
17230;BME280;8731;50.364;8.958;2023-11-19T15:15:51;99514.22;;;15.08;67.13
17230;BME280;8731;50.364;8.958;2023-11-19T15:20:14;99508.22;;;15.08;67.50
17230;BME280;8731;50.364;8.958;2023-11-19T15:24:39;99516.03;;;14.96;67.58
17230;BME280;8731;50.364;8.958;2023-11-19T15:29:02;99527.75;;;14.79;67.16
17230;BME280;8731;50.364;8.958;2023-11-19T15:33:27;99538.09;;;14.67;66.81
17230;BME280;8731;50.364;8.958;2023-11-19T15:37:49;99545.88;;;14.69;67.04
17230;BME280;8731;50.364;8.958;2023-11-19T15:42:13;99558.44;;;14.53;66.82
17230;BME280;8731;50.364;8.958;2023-11-19T15:46:35;99564.69;;;14.69;66.96
17230;BME280;8731;50.364;8.958;2023-11-19T15:50:57;99562.09;;;14.56;66.25
17230;BME280;8731;50.364;8.958;2023-11-19T15:55:20;99558.72;;;14.44;66.15
17230;BME280;8731;50.364;8.958;2023-11-19T15:59:44;99575.88;;;14.45;66.58
17230;BME280;8731;50.364;8.958;2023-11-19T16:04:08;99573.22;;;14.32;66.31
17230;BME280;8731;50.364;8.958;2023-11-19T16:08:30;99580.09;;;14.33;66.68
17230;BME280;8731;50.364;8.958;2023-11-19T16:12:52;99585.31;;;14.21;67.25
17230;BME280;8731;50.364;8.958;2023-11-19T16:17:16;99582.66;;;14.08;67.37
17230;BME280;8731;50.364;8.958;2023-11-19T16:21:39;99575.28;;;14.12;68.74
17230;BME280;8731;50.364;8.958;2023-11-19T16:26:01;99583.72;;;13.98;68.25
17230;BME280;8731;50.364;8.958;2023-11-19T16:30:25;99574.13;;;13.96;68.68
17230;BME280;8731;50.364;8.958;2023-11-19T16:34:49;99568.69;;;13.91;68.72
17230;BME280;8731;50.364;8.958;2023-11-19T16:39:11;99570.47;;;13.92;68.89
17230;BME280;8731;50.364;8.958;2023-11-19T16:43:34;99571.31;;;13.79;68.70
17230;BME280;8731;50.364;8.958;2023-11-19T16:47:57;99578.97;;;13.79;69.17
17230;BME280;8731;50.364;8.958;2023-11-19T16:52:21;99581.91;;;13.72;68.99
17230;BME280;8731;50.364;8.958;2023-11-19T16:56:44;99579.75;;;13.67;69.05
17230;BME280;8731;50.364;8.958;2023-11-19T17:01:06;99578.78;;;13.65;69.22
17230;BME280;8731;50.364;8.958;2023-11-19T17:05:29;99591.44;;;13.75;69.33
17230;BME280;8731;50.364;8.958;2023-11-19T17:09:54;99587.91;;;13.61;69.75
17230;BME280;8731;50.364;8.958;2023-11-19T17:14:17;99598.56;;;13.67;69.92
17230;BME280;8731;50.364;8.958;2023-11-19T17:18:40;99608.38;;;13.61;70.00
17230;BME280;8731;50.364;8.958;2023-11-19T17:23:02;99612.03;;;13.65;70.35
17230;BME280;8731;50.364;8.958;2023-11-19T17:27:26;99609.03;;;13.59;70.50
17230;BME280;8731;50.364;8.958;2023-11-19T17:31:49;99615.41;;;13.52;70.77
17230;BME280;8731;50.364;8.958;2023-11-19T17:36:11;99627.81;;;13.47;70.84
17230;BME280;8731;50.364;8.958;2023-11-19T17:40:34;99628.84;;;13.49;71.27
17230;BME280;8731;50.364;8.958;2023-11-19T17:44:57;99620.84;;;13.57;70.98
17230;BME280;8731;50.364;8.958;2023-11-19T17:49:20;99616.97;;;13.50;71.29
17230;BME280;8731;50.364;8.958;2023-11-19T17:53:43;99613.72;;;13.41;72.16
17230;BME280;8731;50.364;8.958;2023-11-19T17:58:06;99612.50;;;13.36;72.55
17230;BME280;8731;50.364;8.958;2023-11-19T18:02:32;99627.03;;;13.13;72.44
17230;BME280;8731;50.364;8.958;2023-11-19T18:06:54;99621.59;;;13.20;72.10
17230;BME280;8731;50.364;8.958;2023-11-19T18:11:17;99617.59;;;13.24;72.37
17230;BME280;8731;50.364;8.958;2023-11-19T18:15:41;99627.03;;;13.13;72.85
17230;BME280;8731;50.364;8.958;2023-11-19T18:20:06;99630.56;;;13.04;73.02
17230;BME280;8731;50.364;8.958;2023-11-19T18:24:31;99624.59;;;13.03;72.48
17230;BME280;8731;50.364;8.958;2023-11-19T18:28:56;99632.31;;;12.93;72.20
17230;BME280;8731;50.364;8.958;2023-11-19T18:33:18;99624.31;;;12.88;72.14
17230;BME280;8731;50.364;8.958;2023-11-19T18:37:42;99625.22;;;12.89;71.82
17230;BME280;8731;50.364;8.958;2023-11-19T18:42:06;99622.31;;;12.84;71.84
17230;BME280;8731;50.364;8.958;2023-11-19T18:46:28;99621.88;;;12.90;72.58
17230;BME280;8731;50.364;8.958;2023-11-19T18:50:51;99626.50;;;12.72;72.58
17230;BME280;8731;50.364;8.958;2023-11-19T18:55:15;99626.94;;;12.67;72.13
17230;BME280;8731;50.364;8.958;2023-11-19T18:59:38;99622.16;;;12.71;71.49
17230;BME280;8731;50.364;8.958;2023-11-19T19:04:00;99635.47;;;12.67;71.81
17230;BME280;8731;50.364;8.958;2023-11-19T19:08:22;99640.25;;;12.63;71.74
17230;BME280;8731;50.364;8.958;2023-11-19T19:12:46;99641.97;;;12.52;73.04
17230;BME280;8731;50.364;8.958;2023-11-19T19:17:09;99633.53;;;12.53;72.83
17230;BME280;8731;50.364;8.958;2023-11-19T19:21:32;99630.47;;;12.57;72.72
17230;BME280;8731;50.364;8.958;2023-11-19T19:25:54;99631.38;;;12.57;72.70
17230;BME280;8731;50.364;8.958;2023-11-19T19:30:18;99624.22;;;12.53;72.98
17230;BME280;8731;50.364;8.958;2023-11-19T19:34:41;99623.22;;;12.51;72.26
17230;BME280;8731;50.364;8.958;2023-11-19T19:39:03;99637.34;;;12.58;72.97
17230;BME280;8731;50.364;8.958;2023-11-19T19:43:34;99639.53;;;12.53;73.21
17230;BME280;8731;50.364;8.958;2023-11-19T19:47:58;99630.88;;;12.51;73.63
17230;BME280;8731;50.364;8.958;2023-11-19T19:52:20;99627.44;;;12.51;73.71
17230;BME280;8731;50.364;8.958;2023-11-19T19:56:42;99631.75;;;12.52;74.29
17230;BME280;8731;50.364;8.958;2023-11-19T20:01:05;99628.19;;;12.50;74.19
17230;BME280;8731;50.364;8.958;2023-11-19T20:05:30;99631.31;;;12.46;75.50
17230;BME280;8731;50.364;8.958;2023-11-19T20:09:52;99631.53;;;12.49;76.65
17230;BME280;8731;50.364;8.958;2023-11-19T20:14:14;99626.94;;;12.33;77.20
17230;BME280;8731;50.364;8.958;2023-11-19T20:18:37;99633.63;;;12.43;77.09
17230;BME280;8731;50.364;8.958;2023-11-19T20:23:00;99635.50;;;12.34;77.43
17230;BME280;8731;50.364;8.958;2023-11-19T20:27:23;99629.28;;;12.42;77.25
17230;BME280;8731;50.364;8.958;2023-11-19T20:31:45;99627.50;;;12.41;77.04
17230;BME280;8731;50.364;8.958;2023-11-19T20:36:09;99620.69;;;12.29;77.44
17230;BME280;8731;50.364;8.958;2023-11-19T20:40:36;99619.94;;;12.31;77.89
17230;BME280;8731;50.364;8.958;2023-11-19T20:44:59;99620.22;;;12.23;77.99
17230;BME280;8731;50.364;8.958;2023-11-19T20:49:22;99620.56;;;12.28;77.56
17230;BME280;8731;50.364;8.958;2023-11-19T20:53:44;99612.41;;;12.32;77.23
17230;BME280;8731;50.364;8.958;2023-11-19T20:58:08;99621.72;;;12.32;77.86
17230;BME280;8731;50.364;8.958;2023-11-19T21:02:31;99619.03;;;12.30;78.11
17230;BME280;8731;50.364;8.958;2023-11-19T21:06:53;99623.00;;;12.26;78.81
17230;BME280;8731;50.364;8.958;2023-11-19T21:11:17;99622.19;;;12.38;78.25
17230;BME280;8731;50.364;8.958;2023-11-19T21:15:41;99628.09;;;12.26;78.39
17230;BME280;8731;50.364;8.958;2023-11-19T21:20:06;99618.41;;;12.33;78.56
17230;BME280;8731;50.364;8.958;2023-11-19T21:24:28;99618.63;;;12.36;78.66
17230;BME280;8731;50.364;8.958;2023-11-19T21:28:51;99612.13;;;12.29;79.18
17230;BME280;8731;50.364;8.958;2023-11-19T21:33:15;99610.97;;;12.36;78.51
17230;BME280;8731;50.364;8.958;2023-11-19T21:37:38;99609.97;;;12.34;78.86
17230;BME280;8731;50.364;8.958;2023-11-19T21:42:02;99612.41;;;12.32;79.16
17230;BME280;8731;50.364;8.958;2023-11-19T21:46:24;99619.94;;;12.31;79.44
17230;BME280;8731;50.364;8.958;2023-11-19T21:50:48;99613.28;;;12.33;79.35
17230;BME280;8731;50.364;8.958;2023-11-19T21:55:11;99620.19;;;12.34;79.34
17230;BME280;8731;50.364;8.958;2023-11-19T21:59:33;99611.53;;;12.43;79.34
17230;BME280;8731;50.364;8.958;2023-11-19T22:03:56;99610.97;;;12.36;79.41
17230;BME280;8731;50.364;8.958;2023-11-19T22:08:19;99607.09;;;12.41;79.38
17230;BME280;8731;50.364;8.958;2023-11-19T22:12:42;99593.56;;;12.42;79.31
17230;BME280;8731;50.364;8.958;2023-11-19T22:17:07;99612.66;;;12.47;79.60
17230;BME280;8731;50.364;8.958;2023-11-19T22:21:30;99610.88;;;12.46;80.11
17230;BME280;8731;50.364;8.958;2023-11-19T22:25:53;99605.53;;;12.43;79.89
17230;BME280;8731;50.364;8.958;2023-11-19T22:30:16;99605.00;;;12.47;79.81
17230;BME280;8731;50.364;8.958;2023-11-19T22:34:39;99607.97;;;12.41;80.41
17230;BME280;8731;50.364;8.958;2023-11-19T22:39:01;99603.09;;;12.44;80.35
17230;BME280;8731;50.364;8.958;2023-11-19T22:43:25;99603.22;;;12.46;80.02
17230;BME280;8731;50.364;8.958;2023-11-19T22:47:48;99592.22;;;12.47;80.18
17230;BME280;8731;50.364;8.958;2023-11-19T22:52:10;99587.78;;;12.44;80.16
17230;BME280;8731;50.364;8.958;2023-11-19T22:56:32;99580.47;;;12.49;80.38
17230;BME280;8731;50.364;8.958;2023-11-19T23:00:56;99586.22;;;12.46;80.57
17230;BME280;8731;50.364;8.958;2023-11-19T23:05:19;99585.56;;;12.49;80.26
17230;BME280;8731;50.364;8.958;2023-11-19T23:09:42;99589.00;;;12.38;80.86
17230;BME280;8731;50.364;8.958;2023-11-19T23:14:05;99584.69;;;12.48;80.96
17230;BME280;8731;50.364;8.958;2023-11-19T23:18:28;99599.78;;;12.45;80.62
17230;BME280;8731;50.364;8.958;2023-11-19T23:22:51;99600.66;;;12.46;80.52
17230;BME280;8731;50.364;8.958;2023-11-19T23:27:13;99612.00;;;12.49;81.00
17230;BME280;8731;50.364;8.958;2023-11-19T23:31:36;99608.44;;;12.47;80.80
17230;BME280;8731;50.364;8.958;2023-11-19T23:36:00;99611.00;;;12.47;80.98